createdAt,value
2019-01-18T00:01:52.922Z,7.70
2019-01-18T00:04:22.875Z,7.70
2019-01-18T00:06:52.811Z,7.70
2019-01-18T00:09:22.850Z,7.70
2019-01-18T00:11:52.716Z,7.70
2019-01-18T00:14:22.594Z,7.60
2019-01-18T00:16:52.461Z,7.70
2019-01-18T00:19:22.478Z,7.60
2019-01-18T00:21:52.475Z,7.60
2019-01-18T00:24:23.366Z,7.60
2019-01-18T00:26:54.410Z,7.60
2019-01-18T00:29:29.570Z,7.60
2019-01-18T00:31:55.934Z,7.60
2019-01-18T00:34:25.904Z,7.60
2019-01-18T00:36:55.756Z,7.50
2019-01-18T00:39:25.615Z,7.50
2019-01-18T00:41:55.559Z,7.50
2019-01-18T00:44:25.703Z,7.50
2019-01-18T00:46:55.624Z,7.50
2019-01-18T00:49:25.534Z,7.50
2019-01-18T00:51:55.475Z,7.40
2019-01-18T00:54:25.332Z,7.40
2019-01-18T00:56:55.207Z,7.40
2019-01-18T00:59:25.215Z,7.40
2019-01-18T01:01:55.176Z,7.40
2019-01-18T01:04:25.107Z,7.40
2019-01-18T01:06:55.043Z,7.40
2019-01-18T01:09:24.982Z,7.40
2019-01-18T01:11:54.930Z,7.40
2019-01-18T01:14:25.058Z,7.40
2019-01-18T01:16:55.238Z,7.40
2019-01-18T01:19:25.134Z,7.30
2019-01-18T01:21:55.276Z,7.30
2019-01-18T01:24:26.274Z,7.30
2019-01-18T01:26:56.215Z,7.20
2019-01-18T01:29:26.306Z,7.20
2019-01-18T01:31:56.260Z,7.20
2019-01-18T01:34:26.263Z,7.10
2019-01-18T01:36:56.207Z,7.20
2019-01-18T01:39:26.150Z,7.20
2019-01-18T01:41:56.183Z,7.20
2019-01-18T01:44:26.126Z,7.10
2019-01-18T01:46:56.240Z,7.10
2019-01-18T01:49:26.180Z,7.10
2019-01-18T01:51:56.200Z,7.00
2019-01-18T01:54:26.258Z,7.00
2019-01-18T01:56:56.274Z,6.80
2019-01-18T01:59:26.300Z,6.30
2019-01-18T02:01:56.324Z,6.10
2019-01-18T02:04:26.240Z,6.20
2019-01-18T02:06:56.189Z,6.00
2019-01-18T02:09:26.098Z,5.80
2019-01-18T02:11:56.104Z,5.70
2019-01-18T02:14:26.148Z,5.60
2019-01-18T02:16:56.014Z,5.60
2019-01-18T02:19:25.455Z,5.40
2019-01-18T02:21:55.364Z,5.40
2019-01-18T02:24:25.376Z,5.40
2019-01-18T02:26:56.322Z,5.30
2019-01-18T02:29:26.337Z,5.30
2019-01-18T02:31:56.411Z,5.30
2019-01-18T02:34:26.442Z,5.30
2019-01-18T02:36:55.925Z,5.20
2019-01-18T02:39:25.895Z,5.30
2019-01-18T02:41:55.758Z,5.30
2019-01-18T02:44:25.790Z,5.30
2019-01-18T02:46:55.836Z,5.30
2019-01-18T02:49:28.768Z,5.40
2019-01-18T02:51:58.734Z,5.30
2019-01-18T02:54:28.654Z,5.30
2019-01-18T02:56:58.604Z,5.40
2019-01-18T02:59:28.578Z,5.40
2019-01-18T03:01:58.496Z,5.40
2019-01-18T03:04:29.108Z,5.40
2019-01-18T03:06:59.350Z,5.30
2019-01-18T03:09:29.360Z,5.40
2019-01-18T03:11:59.432Z,5.40
2019-01-18T03:14:29.405Z,5.50
2019-01-18T03:16:59.584Z,5.50
2019-01-18T03:19:29.660Z,5.40
2019-01-18T03:22:00.366Z,5.50
2019-01-18T03:24:30.198Z,5.50
2019-01-18T03:27:01.062Z,5.60
2019-01-18T03:29:31.695Z,5.40
2019-01-18T03:32:01.737Z,5.50
2019-01-18T03:34:31.594Z,5.40
2019-01-18T03:37:01.820Z,5.40
2019-01-18T03:39:31.816Z,5.50
2019-01-18T03:42:01.942Z,5.60
2019-01-18T03:44:31.993Z,5.50
2019-01-18T03:47:02.245Z,5.60
2019-01-18T03:49:33.468Z,5.60
2019-01-18T03:52:03.483Z,5.50
2019-01-18T03:54:33.403Z,5.60
2019-01-18T03:57:03.459Z,5.50
2019-01-18T03:59:33.382Z,5.60
2019-01-18T04:02:03.385Z,5.50
2019-01-18T04:04:33.506Z,5.60
2019-01-18T04:07:03.630Z,5.70
2019-01-18T04:09:33.562Z,5.70
2019-01-18T04:12:03.520Z,5.70
2019-01-18T04:14:33.390Z,5.80
2019-01-18T04:17:06.265Z,5.80
2019-01-18T04:19:36.239Z,5.80
2019-01-18T04:22:06.184Z,5.80
2019-01-18T04:24:36.281Z,5.80
2019-01-18T04:27:07.279Z,5.80
2019-01-18T04:29:37.339Z,5.80
2019-01-18T04:32:07.683Z,5.90
2019-01-18T04:34:44.975Z,5.90
2019-01-18T04:37:14.939Z,5.90
2019-01-18T04:39:44.877Z,5.90
2019-01-18T04:42:14.936Z,5.90
2019-01-18T04:44:45.155Z,5.90
2019-01-18T04:47:15.142Z,5.80
2019-01-18T04:49:45.095Z,5.70
2019-01-18T04:52:15.363Z,5.60
2019-01-18T04:54:45.286Z,5.60
2019-01-18T04:57:15.158Z,5.60
2019-01-18T04:59:45.723Z,5.70
2019-01-18T05:02:15.668Z,5.70
2019-01-18T05:04:45.676Z,5.50
2019-01-18T05:07:15.558Z,5.50
2019-01-18T05:09:45.654Z,5.20
2019-01-18T05:12:16.666Z,4.90
2019-01-18T05:14:46.708Z,4.90
2019-01-18T05:17:16.689Z,4.70
2019-01-18T05:19:46.687Z,4.70
2019-01-18T05:22:16.028Z,4.60
2019-01-18T05:24:49.538Z,4.30
2019-01-18T05:27:18.789Z,4.10
2019-01-18T05:29:48.216Z,4.10
2019-01-18T05:32:17.583Z,4.10
2019-01-18T05:34:47.772Z,4.00
2019-01-18T05:37:17.423Z,4.00
2019-01-18T05:39:47.007Z,4.10
2019-01-18T05:42:16.539Z,4.00
2019-01-18T05:44:45.971Z,4.00
2019-01-18T05:47:15.983Z,4.00
2019-01-18T05:49:45.560Z,4.10
2019-01-18T05:52:15.142Z,4.10
2019-01-18T05:54:44.418Z,4.10
2019-01-18T05:57:13.790Z,4.10
2019-01-18T05:59:43.477Z,4.10
2019-01-18T06:02:12.886Z,4.00
2019-01-18T06:04:44.920Z,4.10
2019-01-18T06:07:14.445Z,4.00
2019-01-18T06:09:43.807Z,4.00
2019-01-18T06:12:13.747Z,3.90
2019-01-18T06:14:43.076Z,4.00
2019-01-18T06:17:12.607Z,4.00
2019-01-18T06:19:42.271Z,3.90
2019-01-18T06:22:12.319Z,4.00
2019-01-18T06:24:41.870Z,3.90
2019-01-18T06:27:11.345Z,3.90
2019-01-18T06:29:40.676Z,3.80
2019-01-18T06:32:09.975Z,3.70
2019-01-18T06:34:39.477Z,3.70
2019-01-18T06:37:09.194Z,3.60
2019-01-18T06:39:38.671Z,3.70
2019-01-18T06:42:08.089Z,3.50
2019-01-18T06:44:37.498Z,3.70
2019-01-18T06:47:06.807Z,3.50
2019-01-18T06:49:38.939Z,3.50
2019-01-18T06:52:08.309Z,3.50
2019-01-18T06:54:37.621Z,3.60
2019-01-18T06:57:07.370Z,3.50
2019-01-18T06:59:36.910Z,3.40
2019-01-18T07:02:09.158Z,3.50
2019-01-18T07:04:41.520Z,3.50
2019-01-18T07:07:09.919Z,3.50
2019-01-18T07:09:40.323Z,3.30
2019-01-18T07:12:09.777Z,3.20
2019-01-18T07:14:51.319Z,3.30
2019-01-18T07:17:20.685Z,3.20
2019-01-18T07:19:50.430Z,3.20
2019-01-18T07:22:19.801Z,3.20
2019-01-18T07:24:49.253Z,3.00
2019-01-18T07:27:18.948Z,2.80
2019-01-18T07:29:48.540Z,2.70
2019-01-18T07:32:18.067Z,2.50
2019-01-18T07:34:47.509Z,2.30
2019-01-18T07:37:17.122Z,2.10
2019-01-18T07:39:46.559Z,2.00
2019-01-18T07:42:15.891Z,1.90
2019-01-18T07:44:45.430Z,1.90
2019-01-18T07:47:15.094Z,1.90
2019-01-18T07:49:44.459Z,1.80
2019-01-18T07:52:13.818Z,1.90
2019-01-18T07:54:43.272Z,1.80
2019-01-18T07:57:12.815Z,1.70
2019-01-18T07:59:42.309Z,1.70
2019-01-18T08:02:11.710Z,1.80
2019-01-18T08:04:40.996Z,1.70
2019-01-18T08:07:10.604Z,1.80
2019-01-18T08:09:40.150Z,1.90
2019-01-18T08:12:09.555Z,1.90
2019-01-18T08:14:38.884Z,1.90
2019-01-18T08:17:08.363Z,1.90
2019-01-18T08:19:38.063Z,1.90
2019-01-18T08:22:07.951Z,1.90
2019-01-18T08:24:37.411Z,2.00
2019-01-18T08:27:06.736Z,2.00
2019-01-18T08:29:36.154Z,2.20
2019-01-18T08:32:05.524Z,2.40
2019-01-18T08:34:35.963Z,2.30
2019-01-18T08:37:05.253Z,2.40
2019-01-18T08:39:34.818Z,2.40
2019-01-18T08:42:04.211Z,2.30
2019-01-18T08:44:33.665Z,2.50
2019-01-18T08:47:03.227Z,2.50
2019-01-18T08:49:32.664Z,2.60
2019-01-18T08:52:02.072Z,2.70
2019-01-18T08:54:31.581Z,2.70
2019-01-18T08:57:01.070Z,2.70
2019-01-18T08:59:30.452Z,2.90
2019-01-18T09:01:59.976Z,2.90
2019-01-18T09:04:29.308Z,3.10
2019-01-18T09:06:58.628Z,3.10
2019-01-18T09:09:28.001Z,3.20
2019-01-18T09:11:57.739Z,3.20
2019-01-18T09:14:27.177Z,3.40
2019-01-18T09:16:56.563Z,3.50
2019-01-18T09:19:25.924Z,3.60
2019-01-18T09:21:55.335Z,3.40
2019-01-18T09:24:24.739Z,3.40
2019-01-18T09:26:54.121Z,3.20
2019-01-18T09:29:25.850Z,2.90
2019-01-18T09:31:58.251Z,3.10
2019-01-18T09:34:27.628Z,2.80
2019-01-18T09:36:57.799Z,2.90
2019-01-18T09:39:27.216Z,3.10
2019-01-18T09:41:56.636Z,3.10
2019-01-18T09:44:26.596Z,3.10
2019-01-18T09:46:55.972Z,2.90
2019-01-18T09:49:25.363Z,3.10
2019-01-18T09:51:54.676Z,3.20
2019-01-18T09:54:24.018Z,3.20
2019-01-18T09:56:56.295Z,3.20
2019-01-18T09:59:25.744Z,3.30
2019-01-18T10:01:55.251Z,3.60
2019-01-18T10:04:24.691Z,3.70
2019-01-18T10:06:54.189Z,3.70
2019-01-18T10:09:23.520Z,3.80
2019-01-18T10:11:53.651Z,3.70
2019-01-18T10:14:23.178Z,3.90
2019-01-18T10:16:52.725Z,3.90
2019-01-18T10:19:22.473Z,3.80
2019-01-18T10:21:53.108Z,3.80
2019-01-18T10:24:24.484Z,4.00
2019-01-18T10:26:54.020Z,4.10
2019-01-18T10:29:28.169Z,4.20
2019-01-18T10:31:56.181Z,4.20
2019-01-18T10:34:25.507Z,4.30
2019-01-18T10:36:56.723Z,4.50
2019-01-18T10:39:26.103Z,4.40
2019-01-18T10:41:55.419Z,4.40
2019-01-18T10:44:26.798Z,4.50
2019-01-18T10:46:56.137Z,4.30
2019-01-18T10:49:25.450Z,4.30
2019-01-18T10:51:55.083Z,4.30
2019-01-18T10:54:25.373Z,4.50
2019-01-18T10:56:55.282Z,4.40
2019-01-18T10:59:24.614Z,4.60
2019-01-18T11:02:00.665Z,4.60
2019-01-18T11:04:27.985Z,4.40
2019-01-18T11:06:59.488Z,4.60
2019-01-18T11:09:30.439Z,4.70
2019-01-18T11:11:59.780Z,4.90
2019-01-18T11:14:29.131Z,4.80
2019-01-18T11:16:59.042Z,4.90
2019-01-18T11:19:29.044Z,4.90
2019-01-18T11:22:07.023Z,4.70
2019-01-18T11:24:38.774Z,4.80
2019-01-18T11:27:08.791Z,4.90
2019-01-18T11:29:38.662Z,4.80
2019-01-18T11:32:13.590Z,4.50
2019-01-18T11:34:39.640Z,4.70
2019-01-18T11:37:09.610Z,4.40
2019-01-18T11:39:40.494Z,4.40
2019-01-18T11:42:10.487Z,4.10
2019-01-18T11:44:44.849Z,4.30
2019-01-18T11:47:14.135Z,4.40
2019-01-18T11:49:43.423Z,4.50
2019-01-18T11:52:12.774Z,4.50
2019-01-18T11:54:44.049Z,5.00
2019-01-18T11:57:13.051Z,5.50
2019-01-18T11:59:43.919Z,5.50
2019-01-18T12:02:16.195Z,5.60
2019-01-18T12:04:46.277Z,5.50
2019-01-18T12:07:16.352Z,5.10
2019-01-18T12:09:46.534Z,5.00
2019-01-18T12:12:16.032Z,5.00
2019-01-18T12:14:45.923Z,4.70
2019-01-18T12:17:15.796Z,4.50
2019-01-18T12:19:45.837Z,4.60
2019-01-18T12:22:15.861Z,4.70
2019-01-18T12:24:46.038Z,4.50
2019-01-18T12:27:15.335Z,4.20
2019-01-18T12:29:44.703Z,4.20
2019-01-18T12:32:14.056Z,4.10
2019-01-18T12:34:44.260Z,4.30
2019-01-18T12:37:16.269Z,4.30
2019-01-18T12:39:48.983Z,4.90
2019-01-18T12:42:18.322Z,6.40
2019-01-18T12:44:49.518Z,5.00
2019-01-18T12:47:19.422Z,4.60
2019-01-18T12:49:49.352Z,4.60
2019-01-18T12:52:18.654Z,4.00
2019-01-18T12:54:48.608Z,3.90
2019-01-18T12:57:19.519Z,3.80
2019-01-18T12:59:48.911Z,3.90
2019-01-18T13:02:20.060Z,4.00
2019-01-18T13:04:49.435Z,4.00
2019-01-18T13:07:19.314Z,4.10
2019-01-18T13:09:48.676Z,3.90
2019-01-18T13:12:18.547Z,3.90
2019-01-18T13:14:47.833Z,3.80
2019-01-18T13:17:17.205Z,3.90
2019-01-18T13:19:46.499Z,4.60
2019-01-18T13:22:16.119Z,4.40
2019-01-18T13:24:45.962Z,4.20
2019-01-18T13:27:15.321Z,4.00
2019-01-18T13:29:44.622Z,4.00
2019-01-18T13:32:16.254Z,4.10
2019-01-18T13:34:45.646Z,4.10
2019-01-18T13:37:15.510Z,4.20
2019-01-18T13:39:45.467Z,4.10
2019-01-18T13:42:14.856Z,4.20
2019-01-18T13:44:44.152Z,4.10
2019-01-18T13:47:18.303Z,3.50
2019-01-18T13:49:44.468Z,3.10
2019-01-18T13:52:13.793Z,3.20
2019-01-18T13:54:44.113Z,3.20
2019-01-18T13:57:13.398Z,2.70
2019-01-18T13:59:42.694Z,2.00
2019-01-18T14:02:12.076Z,1.70
2019-01-18T14:04:41.443Z,1.80
2019-01-18T14:07:10.872Z,1.80
2019-01-18T14:09:40.253Z,1.80
2019-01-18T14:12:09.735Z,1.80
2019-01-18T14:14:39.220Z,1.70
2019-01-18T14:17:08.763Z,1.70
2019-01-18T14:19:38.177Z,1.70
2019-01-18T14:22:07.476Z,1.70
2019-01-18T14:24:39.407Z,1.80
2019-01-18T14:27:08.699Z,1.80
2019-01-18T14:29:38.043Z,1.90
2019-01-18T14:32:07.457Z,1.80
2019-01-18T14:34:36.896Z,1.90
2019-01-18T14:37:06.338Z,1.90
2019-01-18T14:39:35.835Z,2.00
2019-01-18T14:42:05.352Z,2.10
2019-01-18T14:44:35.180Z,2.10
2019-01-18T14:47:04.511Z,2.10
2019-01-18T14:49:33.965Z,2.20
2019-01-18T14:52:03.439Z,2.20
2019-01-18T14:54:32.735Z,2.10
2019-01-18T14:57:05.394Z,2.10
2019-01-18T14:59:34.721Z,2.20
2019-01-18T15:02:04.117Z,2.10
2019-01-18T15:04:33.485Z,2.20
2019-01-18T15:07:02.909Z,2.20
2019-01-18T15:09:32.593Z,2.20
2019-01-18T15:12:02.026Z,2.30
2019-01-18T15:14:31.407Z,2.10
2019-01-18T15:17:00.939Z,2.10
2019-01-18T15:19:30.409Z,2.20
2019-01-18T15:21:59.699Z,2.10
2019-01-18T15:24:29.437Z,2.10
2019-01-18T15:26:58.843Z,2.10
2019-01-18T15:29:30.875Z,2.10
2019-01-18T15:32:00.315Z,2.10
2019-01-18T15:34:29.811Z,2.00
2019-01-18T15:36:59.319Z,2.00
2019-01-18T15:39:28.880Z,2.00
2019-01-18T15:41:58.267Z,2.10
2019-01-18T15:44:27.918Z,2.00
2019-01-18T15:46:57.473Z,2.10
2019-01-18T15:49:26.858Z,2.10
2019-01-18T15:51:56.323Z,2.10
2019-01-18T15:54:25.669Z,2.10
2019-01-18T15:56:55.257Z,2.10
2019-01-18T15:59:24.593Z,2.10
2019-01-18T16:01:53.950Z,2.00
2019-01-18T16:04:23.334Z,2.00
2019-01-18T16:06:52.936Z,1.90
2019-01-18T16:09:22.552Z,1.90
2019-01-18T16:11:51.995Z,1.90
2019-01-18T16:14:21.424Z,1.90
2019-01-18T16:16:51.014Z,1.90
2019-01-18T16:19:20.364Z,1.90
2019-01-18T16:21:49.669Z,1.90
2019-01-18T16:24:19.254Z,1.90
2019-01-18T16:26:48.552Z,1.90
2019-01-18T16:29:18.046Z,2.10
2019-01-18T16:31:47.601Z,2.10
2019-01-18T16:34:16.903Z,2.00
2019-01-18T16:36:46.207Z,1.90
2019-01-18T16:39:15.642Z,1.90
2019-01-18T16:41:48.787Z,1.90
2019-01-18T16:44:18.087Z,1.70
2019-01-18T16:46:47.424Z,1.80
2019-01-18T16:49:16.758Z,1.80
2019-01-18T16:51:46.161Z,1.80
2019-01-18T16:54:15.491Z,1.90
2019-01-18T16:56:44.811Z,1.80
2019-01-18T16:59:14.121Z,1.80
2019-01-18T17:01:43.484Z,1.80
2019-01-18T17:04:12.783Z,1.80
2019-01-18T17:06:42.110Z,1.70
2019-01-18T17:09:11.455Z,1.80
2019-01-18T17:11:40.841Z,1.80
2019-01-18T17:14:10.157Z,1.90
2019-01-18T17:16:44.922Z,1.70
2019-01-18T17:19:10.563Z,1.70
2019-01-18T17:21:39.985Z,1.80
2019-01-18T17:24:09.429Z,1.70
2019-01-18T17:26:38.895Z,1.70
2019-01-18T17:29:08.213Z,1.60
2019-01-18T17:31:37.532Z,1.80
2019-01-18T17:34:07.084Z,1.80
2019-01-18T17:36:36.474Z,1.90
2019-01-18T17:39:21.242Z,1.90
2019-01-18T17:42:11.603Z,1.70
2019-01-18T17:45:09.534Z,1.70
2019-01-18T17:48:08.059Z,1.80
2019-01-18T17:50:57.253Z,1.70
2019-01-18T17:53:38.991Z,1.70
2019-01-18T17:56:29.954Z,1.80
2019-01-18T17:59:17.662Z,1.70
2019-01-18T18:01:59.308Z,1.60
2019-01-18T18:05:09.288Z,1.70
2019-01-18T18:08:01.455Z,1.70
2019-01-18T18:10:49.199Z,1.70
2019-01-18T18:13:27.765Z,1.50
2019-01-18T18:16:21.371Z,1.60
2019-01-18T18:19:03.387Z,1.60
2019-01-18T18:21:45.947Z,1.60
2019-01-18T18:24:24.258Z,1.60
2019-01-18T18:27:05.859Z,1.50
2019-01-18T18:29:41.920Z,1.60
2019-01-18T18:32:29.664Z,1.60
2019-01-18T18:35:21.387Z,1.50
2019-01-18T18:38:11.449Z,1.50
2019-01-18T18:41:01.409Z,1.60
2019-01-18T18:43:43.047Z,1.40
2019-01-18T18:46:31.716Z,1.40
2019-01-18T18:49:09.911Z,1.40
2019-01-18T18:51:55.911Z,1.30
2019-01-18T18:54:45.916Z,1.40
2019-01-18T18:57:38.067Z,1.50
2019-01-18T19:00:19.455Z,1.50
2019-01-18T19:03:12.310Z,1.40
2019-01-18T19:06:00.188Z,1.40
2019-01-18T19:08:38.592Z,1.30
2019-01-18T19:11:16.799Z,1.30
2019-01-18T19:13:55.502Z,1.30
2019-01-18T19:16:42.628Z,1.30
2019-01-18T19:19:15.223Z,1.40
2019-01-18T19:22:05.704Z,1.30
2019-01-18T19:24:50.240Z,1.30
2019-01-18T19:27:28.404Z,1.40
2019-01-18T19:30:18.931Z,1.40
2019-01-18T19:33:03.741Z,1.30
2019-01-18T19:36:01.372Z,1.20
2019-01-18T19:38:34.083Z,1.30
2019-01-18T19:41:09.296Z,1.30
2019-01-18T19:43:53.957Z,1.30
2019-01-18T19:46:46.869Z,1.40
2019-01-18T19:49:31.487Z,1.40
2019-01-18T19:52:06.746Z,1.40
2019-01-18T19:54:42.340Z,1.30
2019-01-18T19:57:33.054Z,1.20
2019-01-18T20:00:14.548Z,1.20
2019-01-18T20:02:52.954Z,1.30
2019-01-18T20:05:33.807Z,1.30
2019-01-18T20:08:24.603Z,1.20
2019-01-18T20:10:59.864Z,1.20
2019-01-18T20:13:37.845Z,1.00
2019-01-18T20:16:22.397Z,1.10
2019-01-18T20:19:09.731Z,1.00
2019-01-18T20:21:54.203Z,1.10
2019-01-18T20:24:51.375Z,1.00
2019-01-18T20:27:27.448Z,1.00
2019-01-18T20:30:08.857Z,0.80
2019-01-18T20:33:01.059Z,0.80
2019-01-18T20:35:59.510Z,0.80
2019-01-18T20:38:35.113Z,0.80
2019-01-18T20:41:24.422Z,0.80
2019-01-18T20:43:57.055Z,0.80
2019-01-18T20:46:45.731Z,0.80
2019-01-18T20:49:24.385Z,0.80
2019-01-18T20:52:16.313Z,0.30
2019-01-18T20:55:19.388Z,0.80
2019-01-18T20:58:23.408Z,0.80
2019-01-18T21:01:12.522Z,0.80
2019-01-18T21:04:04.994Z,0.70
2019-01-18T21:06:55.628Z,0.70
2019-01-18T21:09:39.522Z,0.60
2019-01-18T21:12:21.088Z,0.80
2019-01-18T21:15:02.552Z,0.80
2019-01-18T21:17:52.297Z,0.70
2019-01-18T21:20:24.959Z,0.60
2019-01-18T21:23:03.523Z,0.60
2019-01-18T21:25:45.596Z,0.60
2019-01-18T21:28:29.567Z,0.60
2019-01-18T21:31:14.395Z,0.60
2019-01-18T21:33:59.137Z,0.60
2019-01-18T21:36:31.813Z,0.60
2019-01-18T21:39:36.262Z,0.60
2019-01-18T21:42:08.853Z,0.50
2019-01-18T21:44:46.656Z,0.50
2019-01-18T21:47:29.219Z,0.50
2019-01-18T21:50:04.860Z,0.50
2019-01-18T21:52:40.415Z,0.50
2019-01-18T21:55:15.702Z,0.50
2019-01-18T21:57:54.282Z,0.40
2019-01-18T22:00:26.920Z,0.40
2019-01-18T22:03:14.575Z,0.50
2019-01-18T22:05:49.860Z,0.40
2019-01-18T22:08:45.313Z,0.30
2019-01-18T22:11:26.838Z,0.20
2019-01-18T22:14:08.120Z,0.20
2019-01-18T22:17:01.787Z,0.10
2019-01-18T22:19:52.408Z,0.20
2019-01-18T22:22:36.979Z,0.20
2019-01-18T22:25:24.810Z,0.20
2019-01-18T22:28:03.419Z,0.20
2019-01-18T22:30:36.145Z,0.20
2019-01-18T22:33:11.949Z,0.10
2019-01-18T22:35:50.012Z,0.20
2019-01-18T22:38:22.648Z,0.30
2019-01-18T22:40:58.049Z,0.40
2019-01-18T22:43:42.828Z,0.40
2019-01-18T22:46:32.050Z,0.40
2019-01-18T22:49:04.631Z,0.30
2019-01-18T22:51:47.137Z,0.20
2019-01-18T22:54:28.345Z,0.20
2019-01-18T22:57:10.685Z,0.20
2019-01-18T22:59:58.547Z,0.20
2019-01-18T23:02:40.093Z,0.20
2019-01-18T23:05:15.537Z,0.20
2019-01-18T23:07:53.917Z,0.20
2019-01-18T23:10:32.160Z,0.20
2019-01-18T23:13:19.499Z,0.30
2019-01-18T23:16:14.794Z,0.20
2019-01-18T23:18:56.377Z,0.10
2019-01-18T23:21:31.907Z,0.00
2019-01-18T23:24:10.318Z,-0.10
2019-01-18T23:26:54.855Z,-0.10
2019-01-18T23:29:30.245Z,-0.10
2019-01-18T23:32:30.066Z,0.00
2019-01-18T23:35:14.474Z,-0.10
2019-01-18T23:37:56.214Z,-0.10
2019-01-18T23:40:40.148Z,0.00
2019-01-18T23:43:18.742Z,0.00
2019-01-18T23:45:54.004Z,0.00
2019-01-18T23:48:33.153Z,0.00
2019-01-18T23:51:14.531Z,-0.10
2019-01-18T23:53:56.235Z,-0.20
2019-01-18T23:56:34.982Z,-0.20
2019-01-18T23:59:10.221Z,-0.30
